Time;durP1;ratioP1;P1;durP2;ratioP2;P2;SDS_P1;SDS_P2;PMS_P1;PMS_P2;Temp;Humidity;BMP_temperature;BMP_pressure;BME280_temperature;BME280_humidity;BME280_pressure;Samples;Min_cycle;Max_cycle;Signal;HPM_P1;HPM_P2
2022/02/18 00:01:33;;;;;;;2.95;0.95;;;;;;;5.37;53.57;99116.50;4989694;28;120569;-74
2022/02/18 00:04:01;;;;;;;2.83;1.17;;;;;;;5.37;53.83;99127.91;4990986;28;105964;-73
2022/02/18 00:06:26;;;;;;;1.58;0.70;;;;;;;5.34;53.73;99122.94;4988753;28;106088;-74
2022/02/18 00:08:51;;;;;;;4.25;0.85;;;;;;;5.33;53.56;99137.16;4989574;28;106125;-73
2022/02/18 00:11:17;;;;;;;4.90;1.30;;;;;;;5.31;53.41;99139.13;4989612;28;106365;-74
2022/02/18 00:13:43;;;;;;;2.13;0.73;;;;;;;5.30;53.65;99129.53;4990905;28;105805;-74
2022/02/18 00:16:08;;;;;;;2.33;0.93;;;;;;;5.29;53.71;99132.34;4990050;28;106207;-74
2022/02/18 00:18:34;;;;;;;2.92;1.02;;;;;;;5.28;53.83;99151.84;4989956;28;106588;-72
2022/02/18 00:20:59;;;;;;;1.73;1.00;;;;;;;5.25;53.64;99145.06;4989524;28;106195;-73
2022/02/18 00:23:25;;;;;;;5.90;0.95;;;;;;;5.25;53.57;99152.97;4990240;28;106000;-74
2022/02/18 00:25:50;;;;;;;4.50;1.20;;;;;;;5.25;53.84;99155.63;4990290;28;106645;-80
2022/02/18 00:28:17;;;;;;;3.65;1.23;;;;;;;5.24;53.82;99172.44;4989538;28;106797;-73
2022/02/18 00:30:43;;;;;;;3.55;0.80;;;;;;;5.23;53.60;99170.78;4989417;28;106062;-73
2022/02/18 00:33:08;;;;;;;6.47;1.05;;;;;;;5.23;53.95;99163.69;4990261;28;106043;-74
2022/02/18 00:35:34;;;;;;;1.67;0.90;;;;;;;5.24;53.77;99170.63;4990022;28;106030;-74
2022/02/18 00:38:00;;;;;;;2.15;0.80;;;;;;;5.23;53.67;99168.97;4989685;28;113390;-74
2022/02/18 00:40:26;;;;;;;5.03;0.73;;;;;;;5.20;53.65;99177.22;4989623;28;106050;-75
2022/02/18 00:42:51;;;;;;;5.78;1.20;;;;;;;5.16;53.87;99165.31;4989879;28;106328;-74
2022/02/18 00:45:16;;;;;;;5.28;0.88;;;;;;;5.14;53.76;99177.03;4989854;28;106238;-72
2022/02/18 00:47:42;;;;;;;2.67;0.95;;;;;;;5.13;54.10;99175.38;4989291;28;105718;-79
2022/02/18 00:50:08;;;;;;;3.50;1.70;;;;;;;5.16;54.19;99175.88;4989383;28;106023;-76
2022/02/18 00:52:33;;;;;;;3.53;1.00;;;;;;;5.15;54.10;99199.81;4990205;28;105849;-75
2022/02/18 00:54:59;;;;;;;3.95;1.10;;;;;;;5.15;53.95;99194.53;4989640;28;106113;-74
2022/02/18 00:57:24;;;;;;;3.25;0.85;;;;;;;5.17;54.08;99176.72;4989305;28;106578;-77
2022/02/18 00:59:49;;;;;;;5.45;1.33;;;;;;;5.15;54.00;99200.63;4988745;28;120014;-76
2022/02/18 01:02:14;;;;;;;5.47;0.93;;;;;;;5.09;53.92;99203.91;4988326;28;107253;-73
2022/02/18 01:04:40;;;;;;;2.25;0.68;;;;;;;5.02;53.90;99195.78;4989258;28;108051;-73
2022/02/18 01:07:05;;;;;;;2.63;0.93;;;;;;;4.94;54.14;99185.22;4988723;28;106052;-75
2022/02/18 01:09:31;;;;;;;5.45;1.08;;;;;;;4.83;54.13;99207.41;4989211;28;106350;-81
2022/02/18 01:11:57;;;;;;;2.83;1.02;;;;;;;4.73;54.38;99210.19;4989726;28;106034;-74
2022/02/18 01:14:23;;;;;;;6.22;1.15;;;;;;;4.58;54.14;99196.75;4988670;28;115211;-75
2022/02/18 01:16:49;;;;;;;2.53;0.85;;;;;;;4.49;54.70;99197.66;4988498;28;108574;-75
2022/02/18 01:19:14;;;;;;;4.88;1.02;;;;;;;4.44;55.17;99199.13;4988907;28;105873;-78
2022/02/18 01:21:40;;;;;;;5.57;1.42;;;;;;;4.37;55.20;99191.00;4989887;28;106076;-76
2022/02/18 01:24:05;;;;;;;2.55;1.02;;;;;;;4.33;55.43;99198.41;4987803;28;106024;-77
2022/02/18 01:26:34;;;;;;;5.82;1.33;;;;;;;4.30;55.45;99213.69;4991215;28;105941;-75
2022/02/18 01:29:00;;;;;;;2.85;0.82;;;;;;;4.20;55.13;99208.53;4988367;28;106837;-74
2022/02/18 01:31:26;;;;;;;3.97;1.15;;;;;;;4.15;55.42;99216.06;4991017;28;105897;-80
2022/02/18 01:33:57;;;;;;;3.70;0.90;;;;;;;4.11;55.59;99210.25;4989907;28;106233;-75
2022/02/18 01:36:23;;;;;;;4.85;1.05;;;;;;;4.11;55.88;99214.69;4989275;28;106604;-75
2022/02/18 01:38:48;;;;;;;2.25;0.95;;;;;;;4.03;56.35;99216.31;4988577;28;105974;-77
2022/02/18 01:41:14;;;;;;;4.57;1.10;;;;;;;4.00;55.81;99221.84;4989643;28;105730;-74
2022/02/18 01:43:55;;;;;;;3.55;0.98;;;;;;;3.97;56.49;99232.69;4988549;28;107235;-76
2022/02/18 01:46:22;;;;;;;3.83;1.00;;;;;;;3.98;56.18;99218.56;4988727;28;106025;-79
2022/02/18 01:48:48;;;;;;;5.90;1.10;;;;;;;3.94;56.49;99224.25;4987989;28;106134;-74
2022/02/18 01:51:17;;;;;;;2.45;1.15;;;;;;;3.92;56.38;99248.13;4988995;28;105840;-77
2022/02/18 01:53:43;;;;;;;2.75;0.80;;;;;;;3.94;56.10;99245.34;4988428;28;106189;-73
2022/02/18 01:56:08;;;;;;;3.22;0.73;;;;;;;3.94;56.29;99238.28;4987347;28;107536;-74
2022/02/18 01:58:34;;;;;;;2.65;0.95;;;;;;;3.93;56.13;99252.44;4987884;28;105927;-75
2022/02/18 02:00:59;;;;;;;5.00;1.50;;;;;;;3.88;56.34;99252.03;4988691;28;105754;-74
2022/02/18 02:03:25;;;;;;;3.53;0.85;;;;;;;3.83;56.04;99257.78;4988435;28;106120;-79
2022/02/18 02:05:51;;;;;;;3.45;0.70;;;;;;;3.83;56.26;99254.31;4988209;28;106560;-81
2022/02/18 02:08:17;;;;;;;3.22;1.20;;;;;;;3.81;56.76;99243.91;4987943;28;105938;-80
2022/02/18 02:10:44;;;;;;;4.22;1.40;;;;;;;3.84;56.66;99254.16;4987574;28;106096;-79
2022/02/18 02:13:09;;;;;;;3.30;0.80;;;;;;;3.84;56.56;99254.16;4988029;28;106447;-74
2022/02/18 02:15:34;;;;;;;3.97;1.30;;;;;;;3.83;56.55;99256.97;4988193;28;106202;-73
2022/02/18 02:18:01;;;;;;;3.30;0.93;;;;;;;3.83;56.92;99264.88;4987871;28;105991;-74
2022/02/18 02:20:26;;;;;;;1.85;0.80;;;;;;;3.81;56.73;99259.72;4988466;28;106063;-81
2022/02/18 02:22:52;;;;;;;1.80;1.00;;;;;;;3.86;57.42;99248.75;4987515;28;106450;-76
2022/02/18 02:25:17;;;;;;;4.47;1.30;;;;;;;3.86;56.71;99261.91;4987797;28;105991;-74
2022/02/18 02:27:43;;;;;;;2.15;0.77;;;;;;;3.89;56.94;99269.50;4987277;28;117739;-73
2022/02/18 02:30:10;;;;;;;5.53;1.33;;;;;;;3.84;56.81;99251.53;4990446;28;105885;-74
2022/02/18 02:32:36;;;;;;;3.75;0.90;;;;;;;3.83;56.96;99267.50;4991517;28;106180;-75
2022/02/18 02:35:02;;;;;;;4.75;1.17;;;;;;;3.83;57.50;99268.31;4990980;28;106431;-75
2022/02/18 02:37:27;;;;;;;3.72;1.15;;;;;;;3.84;57.50;99263.84;4990789;28;105905;-74
2022/02/18 02:39:52;;;;;;;1.92;1.40;;;;;;;3.81;57.23;99278.16;4992084;28;106060;-73
2022/02/18 02:42:18;;;;;;;6.20;0.88;;;;;;;3.76;57.40;99266.41;4990970;28;106123;-75
2022/02/18 02:44:43;;;;;;;2.92;1.25;;;;;;;3.75;57.37;99268.22;4990727;28;107832;-75
2022/02/18 02:47:09;;;;;;;4.45;1.40;;;;;;;3.72;57.42;99269.34;4990649;28;106090;-74
2022/02/18 02:49:34;;;;;;;6.07;1.13;;;;;;;3.72;57.66;99282.53;4991478;28;106003;-76
2022/02/18 02:51:59;;;;;;;1.63;0.88;;;;;;;3.72;57.39;99265.91;4991167;28;106205;-79
2022/02/18 02:54:26;;;;;;;7.13;1.48;;;;;;;3.73;57.37;99272.81;4990732;28;107298;-74
2022/02/18 02:56:56;;;;;;;2.85;1.05;;;;;;;3.73;57.77;99267.53;4990792;28;105849;-74
2022/02/18 02:59:23;;;;;;;6.03;1.27;;;;;;;3.72;57.20;99272.00;4991562;28;105844;-73
2022/02/18 03:01:48;;;;;;;7.35;1.27;;;;;;;3.72;57.52;99274.63;4990948;28;106288;-74
2022/02/18 03:04:14;;;;;;;3.65;1.23;;;;;;;3.68;57.29;99285.63;4991020;28;106028;-77
2022/02/18 03:06:39;;;;;;;4.35;1.60;;;;;;;3.66;57.84;99298.94;4990675;28;106126;-74
2022/02/18 03:09:10;;;;;;;3.72;0.85;;;;;;;3.69;57.83;99284.63;4991230;28;106007;-74
2022/02/18 03:11:35;;;;;;;;;;;;;;;3.72;58.14;99286.97;4990536;28;106233;-81
2022/02/18 03:14:00;;;;;;;3.20;1.20;;;;;;;3.73;58.08;99291.25;4990753;28;106000;-74
2022/02/18 03:16:26;;;;;;;3.08;1.30;;;;;;;3.71;58.05;99287.94;4990701;28;105901;-74
2022/02/18 03:18:51;;;;;;;4.97;1.20;;;;;;;3.64;57.84;99306.16;4991145;28;105888;-75
2022/02/18 03:21:17;;;;;;;3.22;1.13;;;;;;;3.59;58.21;99308.38;4990915;28;106321;-83
2022/02/18 03:23:45;;;;;;;6.55;1.20;;;;;;;3.59;57.69;99315.47;4990214;28;106028;-75
2022/02/18 03:26:12;;;;;;;3.60;1.13;;;;;;;3.55;57.99;99317.56;4988914;28;108149;-77
2022/02/18 03:28:37;;;;;;;2.75;1.15;;;;;;;3.55;57.98;99314.91;4991071;28;105890;-75
2022/02/18 03:31:03;;;;;;;7.22;1.20;;;;;;;3.55;58.39;99325.44;4990553;28;106132;-76
2022/02/18 03:33:29;;;;;;;4.00;1.08;;;;;;;3.58;58.18;99330.41;4990313;28;105940;-75
2022/02/18 03:35:55;;;;;;;5.30;1.23;;;;;;;3.58;58.07;99332.22;4989979;28;105980;-75
2022/02/18 03:38:21;;;;;;;2.03;1.10;;;;;;;3.53;58.52;99330.06;4990946;28;105935;-75
2022/02/18 03:40:47;;;;;;;3.47;1.10;;;;;;;3.54;58.09;99334.31;4990234;28;106149;-75
2022/02/18 03:43:13;;;;;;;5.00;1.10;;;;;;;3.53;58.32;99332.69;4989660;28;106125;-78
2022/02/18 03:45:38;;;;;;;3.60;1.27;;;;;;;3.54;58.72;99344.84;4989874;28;105829;-74
2022/02/18 03:48:04;;;;;;;7.07;1.70;;;;;;;3.55;58.37;99362.31;4991000;28;106281;-74
2022/02/18 03:50:29;;;;;;;4.20;1.30;;;;;;;3.52;58.28;99345.00;4990226;28;105894;-74
2022/02/18 03:52:57;;;;;;;2.47;1.30;;;;;;;3.52;58.62;99350.28;4990283;28;106054;-74
2022/02/18 03:55:23;;;;;;;5.47;1.13;;;;;;;3.48;58.00;99362.06;4989548;28;105908;-74
2022/02/18 03:57:49;;;;;;;4.20;0.95;;;;;;;3.49;58.19;99360.28;4990619;28;106053;-73
2022/02/18 04:00:15;;;;;;;3.17;1.40;;;;;;;3.49;58.54;99369.00;4989806;28;106577;-73
2022/02/18 04:02:40;;;;;;;5.88;2.08;;;;;;;3.51;58.15;99374.13;4989898;28;105952;-74
2022/02/18 04:05:06;;;;;;;3.85;1.23;;;;;;;3.49;58.57;99376.09;4989498;28;106107;-74
2022/02/18 04:07:31;;;;;;;4.30;1.13;;;;;;;3.49;58.72;99370.81;4990368;28;106037;-75
2022/02/18 04:09:57;;;;;;;5.05;1.40;;;;;;;3.49;58.23;99360.28;4989323;28;107390;-74
2022/02/18 04:12:23;;;;;;;3.58;1.00;;;;;;;3.52;58.23;99378.41;4989004;28;110156;-74
2022/02/18 04:14:48;;;;;;;2.08;1.33;;;;;;;3.61;58.73;99364.38;4988964;28;109243;-75
2022/02/18 04:17:14;;;;;;;6.88;0.90;;;;;;;3.67;58.59;99366.41;4989964;28;106160;-77
2022/02/18 04:19:39;;;;;;;8.98;1.67;;;;;;;3.71;58.57;99362.53;4989600;28;106165;-74
2022/02/18 04:22:04;;;;;;;7.15;0.90;;;;;;;3.77;58.41;99381.34;4989189;28;106596;-74
2022/02/18 04:24:30;;;;;;;7.15;0.93;;;;;;;3.77;58.17;99379.53;4987455;28;107679;-75
2022/02/18 04:26:56;;;;;;;2.58;0.95;;;;;;;3.79;58.15;99374.16;4989515;28;105865;-75
2022/02/18 04:29:21;;;;;;;6.10;1.10;;;;;;;3.79;58.44;99372.34;4989008;28;106145;-74
2022/02/18 04:31:47;;;;;;;3.67;1.45;;;;;;;3.80;57.84;99389.81;4988510;28;118106;-75
2022/02/18 04:34:12;;;;;;;3.88;0.88;;;;;;;3.79;57.77;99388.16;4988446;28;106443;-75
2022/02/18 04:36:37;;;;;;;5.07;1.20;;;;;;;3.82;57.90;99381.75;4989682;28;106333;-75
2022/02/18 04:39:03;;;;;;;9.13;1.20;;;;;;;3.81;58.26;99402.00;4988851;28;106210;-75
2022/02/18 04:41:28;;;;;;;2.10;1.10;;;;;;;3.81;58.13;99388.00;4988933;28;106197;-75
2022/02/18 04:43:54;;;;;;;4.65;1.10;;;;;;;3.81;57.79;99396.72;4988519;28;106277;-76
2022/02/18 04:46:19;;;;;;;4.50;1.02;;;;;;;3.80;57.65;99405.63;4990094;28;106212;-75
2022/02/18 04:48:45;;;;;;;5.53;1.20;;;;;;;3.81;58.29;99398.53;4989283;28;105985;-74
2022/02/18 04:51:10;;;;;;;4.10;1.13;;;;;;;3.77;57.72;99390.09;4988394;28;123976;-75
2022/02/18 04:53:36;;;;;;;3.63;1.20;;;;;;;3.72;57.68;99398.44;4988110;28;106332;-79
2022/02/18 04:56:04;;;;;;;4.32;1.00;;;;;;;3.66;57.97;99404.31;4988924;28;105781;-74
2022/02/18 04:58:30;;;;;;;3.00;1.00;;;;;;;3.59;57.59;99399.75;4988621;28;106666;-74
2022/02/18 05:00:55;;;;;;;4.55;1.50;;;;;;;3.50;57.80;99404.06;4988042;28;105984;-74
2022/02/18 05:03:20;;;;;;;6.65;1.42;;;;;;;3.43;58.41;99408.25;4988312;28;106320;-78
2022/02/18 05:44:30;;;;;;;4.53;1.30;;;;;;;2.37;59.33;99438.78;4986333;28;105839;-76
2022/02/18 05:46:56;;;;;;;2.05;0.85;;;;;;;2.34;59.86;99444.31;4986024;28;105852;-81
2022/02/18 05:49:21;;;;;;;6.70;1.50;;;;;;;2.36;59.99;99447.66;4985013;28;106088;-80
2022/02/18 05:51:46;;;;;;;4.43;1.50;;;;;;;2.39;60.42;99451.78;4982755;28;117989;-76
2022/02/18 05:54:12;;;;;;;1.45;1.00;;;;;;;2.45;60.62;99453.06;4984692;28;106236;-79
2022/02/18 05:56:37;;;;;;;3.47;1.70;;;;;;;2.52;60.56;99469.94;4985710;28;105852;-77
2022/02/18 05:59:02;;;;;;;4.40;1.40;;;;;;;2.57;60.49;99461.63;4985447;28;106317;-76
2022/02/18 06:01:28;;;;;;;6.85;1.88;;;;;;;2.60;60.60;99459.56;4985313;28;105966;-77
2022/02/18 06:03:53;;;;;;;6.47;1.60;;;;;;;2.65;60.93;99460.00;4983107;28;123774;-77
2022/02/18 06:06:18;;;;;;;5.47;1.42;;;;;;;2.73;60.91;99469.00;4983943;28;105939;-79
2022/02/18 06:08:44;;;;;;;5.50;1.83;;;;;;;2.82;61.25;99465.56;4984133;28;115129;-75
2022/02/18 06:11:09;;;;;;;5.22;1.30;;;;;;;2.91;60.76;99467.31;4984097;28;105869;-77
2022/02/18 06:13:35;;;;;;;3.55;1.48;;;;;;;2.97;60.38;99466.78;4984271;28;107016;-81
2022/02/18 06:16:00;;;;;;;4.57;1.30;;;;;;;2.99;60.31;99467.50;4985450;28;106007;-75
2022/02/18 06:18:25;;;;;;;5.07;1.88;;;;;;;3.01;60.23;99464.72;4984387;28;106167;-77
2022/02/18 06:20:51;;;;;;;3.40;1.27;;;;;;;2.99;60.21;99464.00;4984454;28;116398;-73
2022/02/18 06:23:16;;;;;;;10.75;1.73;;;;;;;3.03;60.85;99474.13;4984370;28;106909;-82
2022/02/18 06:25:42;;;;;;;4.70;1.50;;;;;;;3.12;60.67;99469.00;4985947;28;105960;-82
2022/02/18 06:28:10;;;;;;;5.72;2.00;;;;;;;3.18;60.63;99473.69;4985245;28;106172;-77
2022/02/18 06:30:37;;;;;;;6.55;1.58;;;;;;;3.23;60.72;99476.75;4984606;28;105819;-77
2022/02/18 06:33:05;;;;;;;6.63;1.27;;;;;;;3.34;60.41;99484.47;4984261;28;106146;-75
2022/02/18 06:35:31;;;;;;;3.47;1.40;;;;;;;3.46;60.32;99474.63;4985099;28;105980;-80
2022/02/18 06:37:56;;;;;;;7.53;2.17;;;;;;;3.54;60.03;99471.25;4985658;28;106173;-79
2022/02/18 06:40:21;;;;;;;11.55;1.50;;;;;;;3.70;60.85;99486.47;4984242;28;106062;-80
2022/02/18 06:42:47;;;;;;;7.50;1.77;;;;;;;3.90;60.34;99484.63;4984049;28;106265;-82
2022/02/18 06:45:17;;;;;;;7.10;1.75;;;;;;;4.00;59.83;99488.03;4984063;28;106479;-76
2022/02/18 06:47:43;;;;;;;8.32;2.15;;;;;;;4.13;59.60;99494.78;4965045;28;106290;-73
2022/02/18 06:50:08;;;;;;;6.50;1.92;;;;;;;4.30;60.09;99495.81;4964170;28;105749;-72
2022/02/18 06:52:34;;;;;;;5.07;1.98;;;;;;;4.51;60.03;99493.75;4964483;28;106082;-81
2022/02/18 06:54:59;;;;;;;4.53;1.85;;;;;;;4.74;59.50;99493.31;4954394;28;106506;-73
2022/02/18 06:57:24;;;;;;;5.82;2.08;;;;;;;4.85;58.78;99497.56;4961105;28;114869;-77
2022/02/18 06:59:50;;;;;;;5.43;1.73;;;;;;;4.92;58.93;99485.41;4950040;28;126994;-74
2022/02/18 07:02:15;;;;;;;5.05;1.98;;;;;;;5.02;58.82;99485.34;4950836;28;106185;-77
2022/02/18 07:04:40;;;;;;;9.30;1.83;;;;;;;5.16;58.62;99491.91;4953011;28;107073;-76
2022/02/18 07:07:06;;;;;;;7.78;1.88;;;;;;;5.26;58.04;99490.00;4956255;28;106698;-76
2022/02/18 07:09:32;;;;;;;5.20;2.00;;;;;;;5.39;57.87;99501.00;4959974;28;106467;-78
2022/02/18 07:11:57;;;;;;;6.30;2.50;;;;;;;5.44;57.52;99497.91;4960125;28;106099;-77
2022/02/18 07:14:22;;;;;;;8.45;2.10;;;;;;;5.46;57.13;99500.38;4961503;28;106106;-80
2022/02/18 07:16:48;;;;;;;4.65;1.58;;;;;;;5.54;57.06;99511.00;4956625;28;106228;-73
2022/02/18 07:19:14;;;;;;;4.07;2.53;;;;;;;5.59;56.86;99516.66;4950978;28;105913;-74
2022/02/18 07:21:40;;;;;;;5.47;2.08;;;;;;;5.73;57.25;99510.00;4950467;28;106490;-74
2022/02/18 07:24:10;;;;;;;7.53;2.10;;;;;;;5.89;57.31;99517.16;4951159;28;105856;-74
2022/02/18 07:26:37;;;;;;;5.72;2.08;;;;;;;5.97;56.37;99505.81;4950494;28;105954;-73
2022/02/18 07:29:02;;;;;;;6.40;2.33;;;;;;;5.86;55.71;99496.34;4950405;28;105979;-73
2022/02/18 07:31:28;;;;;;;8.70;2.47;;;;;;;5.91;56.43;99504.63;4950341;28;106254;-73
2022/02/18 07:33:54;;;;;;;8.85;2.38;;;;;;;6.09;56.66;99505.41;4950549;28;106141;-75
2022/02/18 07:36:19;;;;;;;10.48;2.35;;;;;;;6.16;56.10;99510.91;4950443;28;106195;-76
2022/02/18 07:38:44;;;;;;;8.38;2.17;;;;;;;6.30;56.56;99506.00;4949937;28;113184;-74
2022/02/18 07:41:09;;;;;;;5.60;2.25;;;;;;;6.54;56.01;99497.31;4949537;28;117442;-74
2022/02/18 07:43:35;;;;;;;6.00;1.80;;;;;;;6.74;55.79;99490.75;4949528;28;106208;-82
2022/02/18 07:46:01;;;;;;;6.82;2.00;;;;;;;7.02;55.64;99498.41;4950825;28;106152;-73
2022/02/18 07:48:26;;;;;;;9.68;3.05;;;;;;;7.15;55.59;99502.38;4950228;28;105900;-75
2022/02/18 07:50:52;;;;;;;5.97;1.38;;;;;;;7.26;54.57;99494.13;4950386;28;105996;-76
2022/02/18 07:53:17;;;;;;;9.52;1.65;;;;;;;7.42;54.40;99502.06;4950912;28;105866;-77
2022/02/18 07:55:42;;;;;;;6.68;1.90;;;;;;;7.50;54.09;99503.03;4949967;28;112555;-74
2022/02/18 07:58:08;;;;;;;7.95;2.58;;;;;;;7.72;54.66;99507.66;4950145;28;112387;-73
2022/02/18 08:00:35;;;;;;;11.23;2.50;;;;;;;7.91;53.89;99495.00;4949673;28;105969;-75
2022/02/18 08:03:01;;;;;;;8.63;1.90;;;;;;;8.20;53.55;99482.97;4952819;28;106138;-75
2022/02/18 08:05:26;;;;;;;11.60;2.40;;;;;;;8.46;54.05;99482.72;4960187;28;106218;-74
2022/02/18 08:07:55;;;;;;;7.90;2.08;;;;;;;8.80;52.71;99490.34;4957950;28;108072;-74
2022/02/18 08:10:21;;;;;;;7.40;1.83;;;;;;;8.94;52.24;99482.63;4957448;28;106041;-74
2022/02/18 08:12:46;;;;;;;6.28;1.77;;;;;;;9.29;52.25;99483.00;4960972;28;106234;-73
2022/02/18 08:15:12;;;;;;;9.63;2.08;;;;;;;9.60;51.31;99484.72;4958276;28;118970;-74
2022/02/18 08:17:37;;;;;;;9.80;2.80;;;;;;;9.85;51.09;99487.13;4958556;28;107544;-74
2022/02/18 08:20:05;;;;;;;8.65;2.40;;;;;;;10.08;49.52;99479.88;4957220;28;106093;-74
2022/02/18 08:22:30;;;;;;;6.78;1.50;;;;;;;10.33;50.60;99490.22;4958639;28;106061;-72
2022/02/18 08:24:56;;;;;;;7.45;1.60;;;;;;;11.15;50.02;99489.09;4963797;28;106180;-76
2022/02/18 08:27:21;;;;;;;6.30;1.75;;;;;;;13.36;46.70;99484.00;4961988;28;106104;-73
2022/02/18 08:29:46;;;;;;;6.63;1.80;;;;;;;15.71;46.49;99475.69;4953269;28;106318;-75
2022/02/18 08:32:12;;;;;;;7.13;2.17;;;;;;;17.90;40.74;99480.94;4957925;28;105973;-75
2022/02/18 08:34:37;;;;;;;5.57;1.80;;;;;;;19.65;37.07;99479.88;4957177;28;105972;-76
2022/02/18 08:37:03;;;;;;;8.85;1.77;;;;;;;20.88;35.73;99486.84;4962015;28;106810;-74
2022/02/18 08:39:28;;;;;;;5.53;2.42;;;;;;;21.86;30.35;99484.94;4964298;28;106796;-74
2022/02/18 08:41:54;;;;;;;7.40;2.50;;;;;;;22.53;28.79;99487.19;4963850;28;105945;-73
2022/02/18 08:44:19;;;;;;;6.70;1.77;;;;;;;22.69;26.96;99498.88;4962949;28;106248;-74
2022/02/18 08:46:45;;;;;;;6.82;2.08;;;;;;;23.09;26.98;99498.13;4970261;28;106237;-74
2022/02/18 08:49:10;;;;;;;7.90;2.63;;;;;;;22.75;25.89;99486.97;4959945;28;106065;-74
2022/02/18 08:51:36;;;;;;;7.07;1.60;;;;;;;23.75;26.27;99498.41;4961011;28;105916;-75
2022/02/18 08:54:02;;;;;;;5.82;1.67;;;;;;;24.53;25.23;99482.66;4965707;28;106651;-73
2022/02/18 08:56:28;;;;;;;5.88;1.70;;;;;;;25.40;25.43;99478.59;4949539;28;105940;-73
2022/02/18 08:58:54;;;;;;;6.07;1.70;;;;;;;27.08;24.42;99489.66;4949375;28;106603;-73
2022/02/18 09:01:20;;;;;;;9.63;1.95;;;;;;;28.12;22.09;99473.13;4959934;28;107418;-72
2022/02/18 09:03:45;;;;;;;6.60;1.70;;;;;;;28.19;21.57;99487.19;4963565;28;106234;-73
2022/02/18 09:06:10;;;;;;;6.35;1.80;;;;;;;28.96;21.26;99484.72;4968233;28;118929;-73
2022/02/18 09:08:36;;;;;;;6.28;1.73;;;;;;;29.46;20.46;99489.31;4968620;28;105939;-72
2022/02/18 09:11:01;;;;;;;5.97;2.00;;;;;;;29.40;19.96;99469.41;4969749;28;105848;-73
2022/02/18 09:13:28;;;;;;;4.88;2.08;;;;;;;28.99;19.71;99486.84;4968747;28;105935;-72
2022/02/18 09:15:53;;;;;;;6.55;1.52;;;;;;;27.70;19.53;99490.28;4968280;28;105978;-73
2022/02/18 09:18:19;;;;;;;7.38;1.90;;;;;;;26.75;21.37;99484.16;4968104;28;106070;-72
2022/02/18 09:20:45;;;;;;;5.78;1.67;;;;;;;26.00;21.04;99492.69;4959059;28;106003;-73
2022/02/18 09:23:11;;;;;;;9.82;2.30;;;;;;;23.57;22.81;99478.88;4947658;28;106221;-73
2022/02/18 09:25:37;;;;;;;10.00;2.38;;;;;;;23.06;23.79;99474.25;4948954;28;105886;-74
2022/02/18 09:28:02;;;;;;;3.97;1.45;;;;;;;22.58;24.24;99482.56;4948594;28;106519;-75
2022/02/18 09:30:28;;;;;;;5.57;1.83;;;;;;;21.74;25.17;99473.50;4949894;28;106093;-74
2022/02/18 09:32:53;;;;;;;6.53;1.90;;;;;;;20.49;26.22;99469.91;4949070;28;106121;-73
2022/02/18 09:35:19;;;;;;;10.15;2.10;;;;;;;21.15;25.97;99469.78;4948887;28;106810;-74
2022/02/18 09:37:44;;;;;;;7.57;1.80;;;;;;;22.07;24.75;99471.50;4948849;28;106129;-73
2022/02/18 09:40:12;;;;;;;8.20;2.00;;;;;;;21.26;25.30;99476.91;4949802;28;105830;-73
2022/02/18 09:42:40;;;;;;;5.85;1.95;;;;;;;22.02;24.92;99468.75;4948500;28;106173;-73
2022/02/18 09:45:05;;;;;;;7.57;2.35;;;;;;;20.92;25.70;99469.03;4948361;28;106063;-73
2022/02/18 09:47:32;;;;;;;7.97;2.05;;;;;;;22.11;24.38;99467.16;4947634;28;107477;-74
2022/02/18 09:49:58;;;;;;;5.05;1.90;;;;;;;22.48;23.60;99466.25;4948708;28;106063;-72
2022/02/18 09:52:24;;;;;;;6.65;2.10;;;;;;;20.62;25.50;99462.19;4948353;28;105974;-73
2022/02/18 09:54:49;;;;;;;6.82;2.17;;;;;;;20.00;26.69;99467.94;4948105;28;105983;-71
2022/02/18 09:57:16;;;;;;;4.15;2.05;;;;;;;19.65;26.83;99452.88;4964556;28;106360;-76
2022/02/18 09:59:42;;;;;;;7.20;1.90;;;;;;;19.28;27.22;99438.00;4968930;28;105963;-73
2022/02/18 10:02:07;;;;;;;7.10;1.98;;;;;;;18.68;27.84;99450.19;4951255;28;106208;-73
2022/02/18 10:04:33;;;;;;;8.52;2.70;;;;;;;19.50;28.16;99439.94;4948406;28;106014;-72
2022/02/18 10:07:01;;;;;;;7.30;2.10;;;;;;;21.89;24.90;99443.75;4947822;28;106975;-72
2022/02/18 10:09:35;;;;;;;9.75;2.50;;;;;;;20.34;26.17;99443.50;4949181;28;106108;-72
2022/02/18 10:12:02;;;;;;;6.55;2.00;;;;;;;19.05;27.08;99418.19;4948305;28;106946;-74
2022/02/18 10:14:50;;;;;;;7.40;1.98;;;;;;;17.48;28.92;99434.47;4948375;28;106782;-73
2022/02/18 10:17:16;;;;;;;5.22;2.15;;;;;;;15.87;31.07;99436.75;4948194;28;106105;-73
2022/02/18 10:19:52;;;;;;;9.23;1.90;;;;;;;16.29;32.07;99431.47;4948734;28;106221;-73
2022/02/18 10:22:28;;;;;;;8.18;1.90;;;;;;;21.17;26.74;99428.88;4948057;28;105950;-73
2022/02/18 10:24:55;;;;;;;6.63;1.77;;;;;;;24.57;23.33;99408.31;4948015;28;106297;-74
2022/02/18 10:27:41;;;;;;;4.75;1.50;;;;;;;27.67;20.06;99414.28;4947746;28;105983;-73
2022/02/18 10:30:07;;;;;;;4.35;1.45;;;;;;;29.98;17.71;99396.22;4950868;28;105941;-72
2022/02/18 10:32:39;;;;;;;5.30;2.35;;;;;;;30.63;16.45;99421.19;4951320;28;106236;-73
2022/02/18 10:35:05;;;;;;;3.33;1.40;;;;;;;30.63;16.43;99420.38;4951141;28;105924;-73
2022/02/18 10:37:33;;;;;;;8.77;2.15;;;;;;;30.24;16.69;99420.16;4951094;28;106129;-72
2022/02/18 10:40:08;;;;;;;11.52;1.75;;;;;;;27.80;17.85;99420.06;4951887;28;106472;-72
2022/02/18 10:42:34;;;;;;;7.72;1.77;;;;;;;28.43;17.77;99410.28;4950774;28;106137;-73
2022/02/18 10:45:11;;;;;;;5.88;1.83;;;;;;;26.67;18.80;99426.31;4950853;28;106030;-74
2022/02/18 10:47:38;;;;;;;6.00;2.20;;;;;;;25.02;20.13;99415.66;4950516;28;106760;-73
2022/02/18 10:50:20;;;;;;;7.97;2.78;;;;;;;24.70;20.64;99406.06;4953820;28;106092;-73
2022/02/18 10:53:08;;;;;;;5.78;2.33;;;;;;;25.75;20.33;99409.25;4958629;28;106712;-74
2022/02/18 10:55:46;;;;;;;6.55;1.90;;;;;;;27.13;18.46;99394.75;4950257;28;106574;-74
2022/02/18 10:58:12;;;;;;;7.30;2.30;;;;;;;28.25;17.69;99381.91;4950616;28;105801;-74
2022/02/18 11:00:37;;;;;;;8.32;2.38;;;;;;;26.98;17.70;99390.34;4954377;28;106405;-72
2022/02/18 11:03:03;;;;;;;6.18;1.63;;;;;;;27.51;17.78;99380.94;4957683;28;106178;-75
2022/02/18 11:05:30;;;;;;;9.48;2.08;;;;;;;29.26;16.45;99380.91;4950881;28;105890;-72
2022/02/18 11:07:56;;;;;;;5.72;1.85;;;;;;;30.55;15.37;99370.59;4950148;28;106154;-74
2022/02/18 11:10:39;;;;;;;6.38;1.98;;;;;;;31.45;14.90;99356.31;4951250;28;106161;-73
2022/02/18 11:13:06;;;;;;;8.88;1.92;;;;;;;30.15;15.36;99348.72;4950380;28;106417;-72
2022/02/18 11:15:34;;;;;;;7.75;3.40;;;;;;;26.79;17.75;99354.06;4950715;28;105985;-73
2022/02/18 11:17:59;;;;;;;3.58;1.90;;;;;;;23.37;19.45;99364.75;4949562;28;106720;-73
2022/02/18 11:20:26;;;;;;;5.22;2.13;;;;;;;21.45;21.35;99349.19;4951574;28;105999;-72
2022/02/18 11:22:53;;;;;;;9.75;4.00;;;;;;;23.81;19.79;99342.28;4951137;28;106121;-75
2022/02/18 11:25:21;;;;;;;7.82;3.42;;;;;;;26.61;17.65;99334.63;4950364;28;106470;-74
2022/02/18 11:27:46;;;;;;;6.05;2.40;;;;;;;28.72;16.32;99324.16;4950508;28;106011;-74
2022/02/18 11:30:12;;;;;;;7.05;2.47;;;;;;;30.99;14.84;99317.44;4950516;28;106001;-74
2022/02/18 11:32:54;;;;;;;6.30;2.22;;;;;;;32.34;13.12;99320.47;4949145;28;106138;-75
2022/02/18 11:35:51;;;;;;;3.53;1.58;;;;;;;31.66;13.29;99324.19;4911544;28;106269;-73
2022/02/18 11:38:24;;;;;;;8.73;2.42;;;;;;;31.72;13.22;99316.53;4930514;28;106036;-75
2022/02/18 11:41:12;;;;;;;7.88;2.20;;;;;;;32.00;13.04;99302.22;4932064;28;106539;-73
2022/02/18 11:43:46;;;;;;;4.22;2.03;;;;;;;33.38;12.82;99292.91;4930705;28;106163;-71
2022/02/18 11:46:21;;;;;;;7.38;2.10;;;;;;;33.02;13.08;99311.03;4930714;28;106091;-71
2022/02/18 11:48:51;;;;;;;7.25;2.53;;;;;;;33.06;12.81;99308.41;4930147;28;106134;-75
2022/02/18 11:51:21;;;;;;;7.50;1.73;;;;;;;31.95;13.53;99303.25;4931427;28;105998;-70
2022/02/18 11:53:52;;;;;;;7.47;2.38;;;;;;;29.99;14.09;99288.00;4931051;28;106064;-70
